Watrous, Canada
Current Conditions -  °F | °C
As of 3:31 AM on Friday 19 Dec 2014 (Local Time) from CYXE Reporting Station
Haze Haze  
Wind Chill:   Ceiling: 300
Heat Index: 18°   Visibility: 2mi
Dew Point: 16°   Wind: 6mph
Humidity: 93%   Direction: 310°NW
Pressure: 29.95"   Gusts: NA
Location:  51.67°N, 105.45°W
Report Text: CYXE 190931Z 31005KT 2SM BR VV003 M08/M09 A2995 RMK FG8 INTMT -SN SLP177
Loading
Personal Weather Stations






























Interactive Weather Map New forecast layout! Learn more

10-Day Weather Forecast

Advertisements
Track Severe Weather on mobile